sensor_id;sensor_type;location;lat;lon;timestamp;pressure;altitude;pressure_sealevel;temperature;humidity
29879;BME280;16752;53.364;-1.488;2023-08-31T00:02:06;99659.84;;;19.44;45.79
29879;BME280;16752;53.364;-1.488;2023-08-31T00:04:53;99704.53;;;19.72;45.43
29879;BME280;16752;53.364;-1.488;2023-08-31T00:07:37;99627.41;;;19.26;46.21
29879;BME280;16752;53.364;-1.488;2023-08-31T00:10:22;99770.44;;;20.07;45.66
29879;BME280;16752;53.364;-1.488;2023-08-31T00:13:07;99622.81;;;19.20;45.67
29879;BME280;16752;53.364;-1.488;2023-08-31T00:15:54;99742.66;;;19.87;45.52
29879;BME280;16752;53.364;-1.488;2023-08-31T00:18:40;99662.72;;;19.35;45.58
29879;BME280;16752;53.364;-1.488;2023-08-31T00:21:24;99695.31;;;19.51;46.10
29879;BME280;16752;53.364;-1.488;2023-08-31T00:24:08;99672.88;;;19.31;46.15
29879;BME280;16752;53.364;-1.488;2023-08-31T00:26:54;99599.38;;;18.92;45.97
29879;BME280;16752;53.364;-1.488;2023-08-31T00:29:38;99603.38;;;18.88;46.42
29879;BME280;16752;53.364;-1.488;2023-08-31T00:32:22;99702.81;;;19.48;46.44
29879;BME280;16752;53.364;-1.488;2023-08-31T00:35:07;99693.53;;;19.44;46.61
29879;BME280;16752;53.364;-1.488;2023-08-31T00:37:52;99693.53;;;19.44;46.65
29879;BME280;16752;53.364;-1.488;2023-08-31T00:40:41;99729.28;;;19.72;46.52
29879;BME280;16752;53.364;-1.488;2023-08-31T00:43:28;99621.84;;;19.13;46.27
29879;BME280;16752;53.364;-1.488;2023-08-31T00:46:13;99723.03;;;19.65;46.59
29879;BME280;16752;53.364;-1.488;2023-08-31T00:48:58;99637.06;;;19.19;46.34
29879;BME280;16752;53.364;-1.488;2023-08-31T00:51:43;99582.69;;;18.76;46.87
29879;BME280;16752;53.364;-1.488;2023-08-31T00:54:34;99657.63;;;19.25;46.69
29879;BME280;16752;53.364;-1.488;2023-08-31T00:57:19;99686.22;;;19.46;46.66
29879;BME280;16752;53.364;-1.488;2023-08-31T01:00:04;99683.75;;;19.44;46.40
29879;BME280;16752;53.364;-1.488;2023-08-31T01:06:07;99681.44;;;19.41;46.80
29879;BME280;16752;53.364;-1.488;2023-08-31T01:08:59;99726.16;;;19.69;46.90
29879;BME280;16752;53.364;-1.488;2023-08-31T01:12:10;99732.00;;;19.64;47.05
29879;BME280;16752;53.364;-1.488;2023-08-31T01:15:04;99688.13;;;19.37;47.08
29879;BME280;16752;53.364;-1.488;2023-08-31T01:17:55;99688.63;;;19.33;47.20
29879;BME280;16752;53.364;-1.488;2023-08-31T01:20:45;99594.44;;;18.81;46.51
29879;BME280;16752;53.364;-1.488;2023-08-31T01:24:01;99653.53;;;19.14;46.84
29879;BME280;16752;53.364;-1.488;2023-08-31T01:26:46;99562.69;;;18.57;46.38
29879;BME280;16752;53.364;-1.488;2023-08-31T01:29:31;99647.25;;;19.07;46.81
29879;BME280;16752;53.364;-1.488;2023-08-31T01:32:15;99585.22;;;18.69;46.70
29879;BME280;16752;53.364;-1.488;2023-08-31T01:35:01;99581.56;;;18.70;46.85
29879;BME280;16752;53.364;-1.488;2023-08-31T01:37:53;99613.19;;;18.80;47.17
29879;BME280;16752;53.364;-1.488;2023-08-31T01:40:44;99711.50;;;19.42;46.96
29879;BME280;16752;53.364;-1.488;2023-08-31T01:43:32;99665.69;;;19.09;47.20
29879;BME280;16752;53.364;-1.488;2023-08-31T01:46:21;99740.31;;;19.61;47.28
29879;BME280;16752;53.364;-1.488;2023-08-31T01:49:05;99692.78;;;19.27;47.38
29879;BME280;16752;53.364;-1.488;2023-08-31T01:51:50;99709.00;;;19.40;47.00
29879;BME280;16752;53.364;-1.488;2023-08-31T01:54:34;99646.63;;;18.97;47.00
29879;BME280;16752;53.364;-1.488;2023-08-31T01:57:18;99595.19;;;18.67;46.88
29879;BME280;16752;53.364;-1.488;2023-08-31T02:00:03;99659.72;;;18.99;47.20
29879;BME280;16752;53.364;-1.488;2023-08-31T02:02:48;99727.25;;;19.43;47.25
29879;BME280;16752;53.364;-1.488;2023-08-31T02:05:32;99630.13;;;18.79;47.08
29879;BME280;16752;53.364;-1.488;2023-08-31T02:08:16;99603.78;;;18.61;46.74
29879;BME280;16752;53.364;-1.488;2023-08-31T02:11:01;99704.06;;;19.29;47.01
29879;BME280;16752;53.364;-1.488;2023-08-31T02:13:46;99649.63;;;18.94;46.79
29879;BME280;16752;53.364;-1.488;2023-08-31T02:16:31;99745.84;;;19.43;47.19
29879;BME280;16752;53.364;-1.488;2023-08-31T02:19:15;99600.63;;;18.57;47.22
29879;BME280;16752;53.364;-1.488;2023-08-31T02:22:00;99618.72;;;18.70;47.14
29879;BME280;16752;53.364;-1.488;2023-08-31T02:24:44;99742.88;;;19.38;47.57
29879;BME280;16752;53.364;-1.488;2023-08-31T02:27:28;99742.88;;;19.38;47.27
29879;BME280;16752;53.364;-1.488;2023-08-31T02:30:14;99580.28;;;18.42;46.81
29879;BME280;16752;53.364;-1.488;2023-08-31T02:32:58;99658.97;;;18.82;46.98
29879;BME280;16752;53.364;-1.488;2023-08-31T02:35:42;99736.94;;;19.28;46.66
29879;BME280;16752;53.364;-1.488;2023-08-31T02:38:26;99583.66;;;18.27;47.00
29879;BME280;16752;53.364;-1.488;2023-08-31T02:41:10;99648.41;;;18.66;46.99
29879;BME280;16752;53.364;-1.488;2023-08-31T02:43:55;99643.44;;;18.54;47.07
29879;BME280;16752;53.364;-1.488;2023-08-31T02:46:40;99654.88;;;18.63;47.22
29879;BME280;16752;53.364;-1.488;2023-08-31T02:49:24;99576.38;;;18.13;47.53
29879;BME280;16752;53.364;-1.488;2023-08-31T02:52:08;99745.28;;;19.17;47.15
29879;BME280;16752;53.364;-1.488;2023-08-31T02:54:52;99608.47;;;18.43;47.22
29879;BME280;16752;53.364;-1.488;2023-08-31T02:57:37;99566.78;;;18.12;46.77
29879;BME280;16752;53.364;-1.488;2023-08-31T03:00:25;99724.56;;;19.12;47.01
29879;BME280;16752;53.364;-1.488;2023-08-31T03:03:10;99718.59;;;19.10;47.20
29879;BME280;16752;53.364;-1.488;2023-08-31T03:05:55;99623.41;;;18.44;47.46
29879;BME280;16752;53.364;-1.488;2023-08-31T03:08:40;99669.78;;;18.56;47.93
29879;BME280;16752;53.364;-1.488;2023-08-31T03:11:25;99730.72;;;19.13;47.82
29879;BME280;16752;53.364;-1.488;2023-08-31T03:14:09;99675.06;;;18.80;46.96
29879;BME280;16752;53.364;-1.488;2023-08-31T03:16:53;99661.47;;;18.75;47.22
29879;BME280;16752;53.364;-1.488;2023-08-31T03:19:38;99537.16;;;17.92;46.92
29879;BME280;16752;53.364;-1.488;2023-08-31T03:22:22;99653.72;;;18.66;47.24
29879;BME280;16752;53.364;-1.488;2023-08-31T03:25:08;99551.88;;;17.95;47.11
29879;BME280;16752;53.364;-1.488;2023-08-31T03:27:54;99718.81;;;18.92;47.00
29879;BME280;16752;53.364;-1.488;2023-08-31T03:30:44;99613.13;;;18.32;47.12
29879;BME280;16752;53.364;-1.488;2023-08-31T03:33:29;99584.81;;;18.17;47.18
29879;BME280;16752;53.364;-1.488;2023-08-31T03:36:13;99635.81;;;18.43;47.16
29879;BME280;16752;53.364;-1.488;2023-08-31T03:38:58;99546.94;;;17.84;47.84
29879;BME280;16752;53.364;-1.488;2023-08-31T03:41:43;99559.19;;;18.01;47.36
29879;BME280;16752;53.364;-1.488;2023-08-31T03:44:37;99700.25;;;18.84;47.06
29879;BME280;16752;53.364;-1.488;2023-08-31T03:47:45;99552.91;;;17.86;47.03
29879;BME280;16752;53.364;-1.488;2023-08-31T03:50:33;99698.63;;;18.75;47.01
29879;BME280;16752;53.364;-1.488;2023-08-31T03:53:32;99539.66;;;17.69;47.37
29879;BME280;16752;53.364;-1.488;2023-08-31T03:56:39;99594.63;;;18.00;47.43
29879;BME280;16752;53.364;-1.488;2023-08-31T04:00:06;99550.41;;;17.76;47.85
29879;BME280;16752;53.364;-1.488;2023-08-31T04:02:56;99527.72;;;17.65;47.24
29879;BME280;16752;53.364;-1.488;2023-08-31T04:06:07;99550.94;;;17.71;47.10
29879;BME280;16752;53.364;-1.488;2023-08-31T04:09:06;99541.97;;;17.64;47.46
29879;BME280;16752;53.364;-1.488;2023-08-31T04:14:45;99711.91;;;18.67;47.31
29879;BME280;16752;53.364;-1.488;2023-08-31T06:20:15;99666.31;;;18.72;47.56
29879;BME280;16752;53.364;-1.488;2023-08-31T06:23:00;99600.66;;;18.66;46.66
29879;BME280;16752;53.364;-1.488;2023-08-31T06:25:55;99705.72;;;19.30;46.39
29879;BME280;16752;53.364;-1.488;2023-08-31T06:28:39;99646.69;;;18.89;46.64
29879;BME280;16752;53.364;-1.488;2023-08-31T06:31:23;99764.41;;;19.51;47.41
29879;BME280;16752;53.364;-1.488;2023-08-31T06:34:07;99732.03;;;19.48;46.79
29879;BME280;16752;53.364;-1.488;2023-08-31T06:36:51;99747.00;;;19.57;46.77
29879;BME280;16752;53.364;-1.488;2023-08-31T06:39:35;99742.44;;;19.66;46.44
29879;BME280;16752;53.364;-1.488;2023-08-31T06:42:20;99734.47;;;19.66;46.73
29879;BME280;16752;53.364;-1.488;2023-08-31T06:45:06;99600.41;;;18.83;46.28
29879;BME280;16752;53.364;-1.488;2023-08-31T06:47:51;99716.75;;;19.58;46.33
29879;BME280;16752;53.364;-1.488;2023-08-31T06:50:35;99660.56;;;19.30;46.26
29879;BME280;16752;53.364;-1.488;2023-08-31T06:53:20;99711.25;;;19.51;47.08
29879;BME280;16752;53.364;-1.488;2023-08-31T06:56:04;99701.16;;;19.55;46.69
29879;BME280;16752;53.364;-1.488;2023-08-31T06:58:47;99694.72;;;19.72;46.18
29879;BME280;16752;53.364;-1.488;2023-08-31T07:01:32;99694.34;;;19.83;46.26
29879;BME280;16752;53.364;-1.488;2023-08-31T07:04:17;99761.94;;;20.35;45.82
29879;BME280;16752;53.364;-1.488;2023-08-31T07:07:05;99695.41;;;19.97;45.73
29879;BME280;16752;53.364;-1.488;2023-08-31T07:09:49;99669.88;;;19.88;45.71
29879;BME280;16752;53.364;-1.488;2023-08-31T07:12:34;99687.38;;;20.05;45.59
29879;BME280;16752;53.364;-1.488;2023-08-31T07:15:18;99708.06;;;20.41;45.17
29879;BME280;16752;53.364;-1.488;2023-08-31T07:18:02;99619.00;;;19.91;45.93
29879;BME280;16752;53.364;-1.488;2023-08-31T07:20:47;99774.97;;;21.05;44.88
29879;BME280;16752;53.364;-1.488;2023-08-31T07:23:32;99618.72;;;19.86;44.77
29879;BME280;16752;53.364;-1.488;2023-08-31T07:26:16;99698.25;;;20.33;44.88
29879;BME280;16752;53.364;-1.488;2023-08-31T07:29:01;99770.38;;;21.14;43.98
29879;BME280;16752;53.364;-1.488;2023-08-31T07:31:48;99749.13;;;21.28;43.47
29879;BME280;16752;53.364;-1.488;2023-08-31T07:34:34;99682.94;;;20.58;43.87
29879;BME280;16752;53.364;-1.488;2023-08-31T07:37:19;99721.97;;;21.10;43.50
29879;BME280;16752;53.364;-1.488;2023-08-31T07:40:04;99629.44;;;20.83;43.49
29879;BME280;16752;53.364;-1.488;2023-08-31T07:42:52;99691.38;;;21.50;42.66
29879;BME280;16752;53.364;-1.488;2023-08-31T07:45:36;99762.19;;;22.10;42.63
29879;BME280;16752;53.364;-1.488;2023-08-31T07:48:21;99767.22;;;22.41;42.99
29879;BME280;16752;53.364;-1.488;2023-08-31T07:51:15;99701.84;;;21.52;42.06
29879;BME280;16752;53.364;-1.488;2023-08-31T07:54:19;99739.50;;;20.90;43.22
29879;BME280;16752;53.364;-1.488;2023-08-31T07:57:06;99703.16;;;20.97;43.85
29879;BME280;16752;53.364;-1.488;2023-08-31T08:03:19;99703.00;;;21.85;41.88
29879;BME280;16752;53.364;-1.488;2023-08-31T08:06:03;99793.19;;;22.54;41.47
29879;BME280;16752;53.364;-1.488;2023-08-31T08:08:47;99696.16;;;22.40;42.08
29879;BME280;16752;53.364;-1.488;2023-08-31T08:11:34;99701.66;;;22.60;40.85
29879;BME280;16752;53.364;-1.488;2023-08-31T08:14:18;99688.41;;;23.08;40.12
29879;BME280;16752;53.364;-1.488;2023-08-31T08:17:31;99780.88;;;23.02;40.18
29879;BME280;16752;53.364;-1.488;2023-08-31T08:20:18;99697.19;;;21.24;41.38
29879;BME280;16752;53.364;-1.488;2023-08-31T08:23:02;99777.69;;;21.85;40.42
29879;BME280;16752;53.364;-1.488;2023-08-31T08:25:46;99724.34;;;21.85;40.17
29879;BME280;16752;53.364;-1.488;2023-08-31T08:28:31;99704.38;;;21.96;39.12
29879;BME280;16752;53.364;-1.488;2023-08-31T08:31:16;99755.19;;;21.73;40.54
29879;BME280;16752;53.364;-1.488;2023-08-31T08:34:01;99752.00;;;22.91;38.66
29879;BME280;16752;53.364;-1.488;2023-08-31T08:36:45;99694.16;;;22.49;38.50
29879;BME280;16752;53.364;-1.488;2023-08-31T08:39:29;99753.34;;;22.10;39.98
29879;BME280;16752;53.364;-1.488;2023-08-31T08:47:55;99672.84;;;23.72;36.42
29879;BME280;16752;53.364;-1.488;2023-08-31T08:50:41;99696.16;;;22.96;36.71
29879;BME280;16752;53.364;-1.488;2023-08-31T08:53:25;99775.25;;;22.97;36.71
29879;BME280;16752;53.364;-1.488;2023-08-31T08:56:09;99759.25;;;23.38;36.20
29879;BME280;16752;53.364;-1.488;2023-08-31T08:58:53;99777.72;;;23.27;37.02
29879;BME280;16752;53.364;-1.488;2023-08-31T09:01:38;99657.56;;;22.71;36.69
29879;BME280;16752;53.364;-1.488;2023-08-31T09:08:14;99760.75;;;23.06;37.41
29879;BME280;16752;53.364;-1.488;2023-08-31T09:13:46;99778.31;;;23.22;37.29
29879;BME280;16752;53.364;-1.488;2023-08-31T09:16:31;99719.09;;;22.84;37.78
29879;BME280;16752;53.364;-1.488;2023-08-31T09:19:26;99777.69;;;22.92;37.86
29879;BME280;16752;53.364;-1.488;2023-08-31T09:28:27;99763.53;;;23.26;37.63
29879;BME280;16752;53.364;-1.488;2023-08-31T09:31:12;99769.38;;;23.43;37.77
29879;BME280;16752;53.364;-1.488;2023-08-31T09:43:44;99693.03;;;24.01;36.16
29879;BME280;16752;53.364;-1.488;2023-08-31T09:46:28;99687.78;;;23.54;36.73
29879;BME280;16752;53.364;-1.488;2023-08-31T09:57:56;99760.19;;;24.92;35.42
29879;BME280;16752;53.364;-1.488;2023-08-31T10:00:41;99653.88;;;24.86;33.15
29879;BME280;16752;53.364;-1.488;2023-08-31T10:03:26;99649.72;;;25.04;34.24
29879;BME280;16752;53.364;-1.488;2023-08-31T10:13:04;99668.78;;;24.43;33.99
29879;BME280;16752;53.364;-1.488;2023-08-31T10:16:01;99624.41;;;24.86;33.01
29879;BME280;16752;53.364;-1.488;2023-08-31T10:18:50;99741.19;;;25.85;33.36
29879;BME280;16752;53.364;-1.488;2023-08-31T10:22:00;99679.22;;;25.04;34.25
29879;BME280;16752;53.364;-1.488;2023-08-31T10:25:01;99726.63;;;24.83;34.40
29879;BME280;16752;53.364;-1.488;2023-08-31T10:28:17;99739.09;;;25.42;33.80
29879;BME280;16752;53.364;-1.488;2023-08-31T10:31:10;99691.56;;;24.91;31.32
29879;BME280;16752;53.364;-1.488;2023-08-31T10:34:02;99662.09;;;25.49;29.93
29879;BME280;16752;53.364;-1.488;2023-08-31T10:37:00;99604.66;;;25.64;31.43
29879;BME280;16752;53.364;-1.488;2023-08-31T10:40:17;99733.88;;;26.24;31.05
29879;BME280;16752;53.364;-1.488;2023-08-31T10:46:30;99718.66;;;25.41;31.18
29879;BME280;16752;53.364;-1.488;2023-08-31T10:49:49;99706.78;;;26.07;32.03
29879;BME280;16752;53.364;-1.488;2023-08-31T10:56:32;99582.47;;;24.54;32.10
29879;BME280;16752;53.364;-1.488;2023-08-31T10:59:16;99670.91;;;25.12;31.69
29879;BME280;16752;53.364;-1.488;2023-08-31T11:02:01;99639.28;;;24.76;32.00
29879;BME280;16752;53.364;-1.488;2023-08-31T11:04:53;99646.16;;;25.23;31.92
29879;BME280;16752;53.364;-1.488;2023-08-31T11:07:39;99699.03;;;25.92;31.47
29879;BME280;16752;53.364;-1.488;2023-08-31T11:10:25;99718.47;;;25.81;32.53
29879;BME280;16752;53.364;-1.488;2023-08-31T11:13:18;99641.84;;;25.53;32.51
29879;BME280;16752;53.364;-1.488;2023-08-31T11:16:06;99718.09;;;26.40;31.74
29879;BME280;16752;53.364;-1.488;2023-08-31T11:18:50;99628.16;;;24.65;33.07
29879;BME280;16752;53.364;-1.488;2023-08-31T11:21:36;99660.63;;;25.09;32.38
29879;BME280;16752;53.364;-1.488;2023-08-31T11:24:21;99625.53;;;24.46;32.31
29879;BME280;16752;53.364;-1.488;2023-08-31T11:27:07;99711.78;;;24.87;32.47
29879;BME280;16752;53.364;-1.488;2023-08-31T11:29:51;99667.75;;;24.11;33.18
29879;BME280;16752;53.364;-1.488;2023-08-31T11:32:52;99643.47;;;25.23;31.70
29879;BME280;16752;53.364;-1.488;2023-08-31T11:35:43;99704.78;;;25.96;30.69
29879;BME280;16752;53.364;-1.488;2023-08-31T11:38:28;99624.63;;;25.74;29.64
29879;BME280;16752;53.364;-1.488;2023-08-31T11:41:13;99649.16;;;25.78;30.80
29879;BME280;16752;53.364;-1.488;2023-08-31T11:43:58;99647.13;;;26.05;29.51
29879;BME280;16752;53.364;-1.488;2023-08-31T11:46:45;99692.47;;;27.24;29.80
29879;BME280;16752;53.364;-1.488;2023-08-31T11:49:32;99653.41;;;27.03;29.86
29879;BME280;16752;53.364;-1.488;2023-08-31T11:52:16;99675.97;;;28.11;28.27
29879;BME280;16752;53.364;-1.488;2023-08-31T11:55:01;99653.91;;;27.90;28.65
29879;BME280;16752;53.364;-1.488;2023-08-31T11:57:49;99694.63;;;26.97;27.89
29879;BME280;16752;53.364;-1.488;2023-08-31T12:00:34;99627.53;;;27.69;27.83
29879;BME280;16752;53.364;-1.488;2023-08-31T12:03:18;99584.19;;;26.44;27.38
29879;BME280;16752;53.364;-1.488;2023-08-31T12:06:02;99600.53;;;27.46;27.54
29879;BME280;16752;53.364;-1.488;2023-08-31T12:08:47;99664.06;;;27.28;27.55
29879;BME280;16752;53.364;-1.488;2023-08-31T12:11:35;99642.38;;;27.42;28.77
29879;BME280;16752;53.364;-1.488;2023-08-31T12:14:23;99676.06;;;27.14;29.93
29879;BME280;16752;53.364;-1.488;2023-08-31T12:17:08;99662.09;;;26.62;29.03
29879;BME280;16752;53.364;-1.488;2023-08-31T12:19:52;99640.03;;;27.63;28.16
29879;BME280;16752;53.364;-1.488;2023-08-31T12:22:36;99653.75;;;28.62;28.29
29879;BME280;16752;53.364;-1.488;2023-08-31T12:25:21;99596.97;;;28.28;26.07
29879;BME280;16752;53.364;-1.488;2023-08-31T12:28:05;99665.00;;;27.52;26.90
29879;BME280;16752;53.364;-1.488;2023-08-31T12:30:53;99607.81;;;27.27;25.81
29879;BME280;16752;53.364;-1.488;2023-08-31T12:36:37;99553.50;;;27.48;25.34
29879;BME280;16752;53.364;-1.488;2023-08-31T12:39:23;99632.09;;;29.20;24.95
29879;BME280;16752;53.364;-1.488;2023-08-31T12:42:08;99618.03;;;28.20;25.36
29879;BME280;16752;53.364;-1.488;2023-08-31T12:44:52;99674.75;;;27.95;25.41
29879;BME280;16752;53.364;-1.488;2023-08-31T12:47:36;99621.19;;;28.52;24.37
29879;BME280;16752;53.364;-1.488;2023-08-31T12:50:23;99537.66;;;26.50;26.13
29879;BME280;16752;53.364;-1.488;2023-08-31T12:53:08;99633.19;;;27.79;27.92
29879;BME280;16752;53.364;-1.488;2023-08-31T12:55:54;99673.06;;;27.52;25.72
29879;BME280;16752;53.364;-1.488;2023-08-31T12:58:44;99585.91;;;27.42;26.01
29879;BME280;16752;53.364;-1.488;2023-08-31T13:01:33;99640.72;;;26.92;25.03
29879;BME280;16752;53.364;-1.488;2023-08-31T13:04:40;99628.31;;;26.91;25.52
29879;BME280;16752;53.364;-1.488;2023-08-31T13:07:24;99633.47;;;28.13;25.81
29879;BME280;16752;53.364;-1.488;2023-08-31T13:10:09;99609.44;;;27.16;25.48
29879;BME280;16752;53.364;-1.488;2023-08-31T13:13:00;99599.28;;;27.60;24.52
29879;BME280;16752;53.364;-1.488;2023-08-31T13:15:48;99532.44;;;26.85;25.06
29879;BME280;16752;53.364;-1.488;2023-08-31T13:18:33;99674.31;;;27.98;24.94
29879;BME280;16752;53.364;-1.488;2023-08-31T13:21:17;99628.16;;;27.94;24.95
29879;BME280;16752;53.364;-1.488;2023-08-31T13:24:04;99583.53;;;27.63;25.15
29879;BME280;16752;53.364;-1.488;2023-08-31T13:26:48;99600.63;;;26.91;25.07
29879;BME280;16752;53.364;-1.488;2023-08-31T13:29:33;99529.84;;;26.78;26.41
29879;BME280;16752;53.364;-1.488;2023-08-31T13:32:20;99662.06;;;27.72;25.12
29879;BME280;16752;53.364;-1.488;2023-08-31T13:35:08;99566.56;;;26.66;26.22
29879;BME280;16752;53.364;-1.488;2023-08-31T13:37:52;99621.69;;;25.82;27.81
29879;BME280;16752;53.364;-1.488;2023-08-31T13:40:37;99609.06;;;27.13;27.20
29879;BME280;16752;53.364;-1.488;2023-08-31T13:43:21;99606.69;;;27.34;27.49
29879;BME280;16752;53.364;-1.488;2023-08-31T13:46:06;99590.34;;;27.36;27.01
29879;BME280;16752;53.364;-1.488;2023-08-31T13:48:50;99621.97;;;27.94;27.04
29879;BME280;16752;53.364;-1.488;2023-08-31T13:51:34;99591.44;;;27.58;26.66
29879;BME280;16752;53.364;-1.488;2023-08-31T13:54:18;99639.47;;;27.73;27.60
29879;BME280;16752;53.364;-1.488;2023-08-31T13:57:02;99574.03;;;26.46;27.87
29879;BME280;16752;53.364;-1.488;2023-08-31T13:59:47;99596.94;;;27.22;28.13
29879;BME280;16752;53.364;-1.488;2023-08-31T14:02:31;99602.44;;;27.57;27.03
29879;BME280;16752;53.364;-1.488;2023-08-31T14:05:15;99590.66;;;25.62;28.84
29879;BME280;16752;53.364;-1.488;2023-08-31T14:08:00;99607.34;;;26.82;27.64
29879;BME280;16752;53.364;-1.488;2023-08-31T14:10:53;99671.75;;;26.20;28.88
29879;BME280;16752;53.364;-1.488;2023-08-31T14:13:38;99662.66;;;26.46;29.28
29879;BME280;16752;53.364;-1.488;2023-08-31T14:16:22;99610.91;;;26.14;28.88
29879;BME280;16752;53.364;-1.488;2023-08-31T14:19:06;99570.19;;;25.92;28.34
29879;BME280;16752;53.364;-1.488;2023-08-31T14:21:50;99539.97;;;25.22;28.85
29879;BME280;16752;53.364;-1.488;2023-08-31T14:24:37;99568.50;;;25.41;28.75
29879;BME280;16752;53.364;-1.488;2023-08-31T14:27:21;99616.13;;;25.46;29.50
29879;BME280;16752;53.364;-1.488;2023-08-31T14:30:07;99628.72;;;25.45;29.90
29879;BME280;16752;53.364;-1.488;2023-08-31T14:32:52;99583.06;;;25.14;30.35
29879;BME280;16752;53.364;-1.488;2023-08-31T14:35:38;99670.31;;;26.49;29.82
29879;BME280;16752;53.364;-1.488;2023-08-31T14:38:23;99571.75;;;26.06;29.63
29879;BME280;16752;53.364;-1.488;2023-08-31T14:41:14;99622.47;;;25.51;31.46
29879;BME280;16752;53.364;-1.488;2023-08-31T14:43:58;99558.63;;;24.39;32.35
29879;BME280;16752;53.364;-1.488;2023-08-31T14:46:42;99566.78;;;25.15;32.48
29879;BME280;16752;53.364;-1.488;2023-08-31T14:49:29;99566.25;;;24.93;32.24
29879;BME280;16752;53.364;-1.488;2023-08-31T14:52:13;99577.47;;;24.77;33.67
29879;BME280;16752;53.364;-1.488;2023-08-31T14:54:57;99649.53;;;24.98;34.12
29879;BME280;16752;53.364;-1.488;2023-08-31T14:57:41;99577.38;;;25.35;34.20
29879;BME280;16752;53.364;-1.488;2023-08-31T15:00:26;99644.47;;;25.67;36.49
29879;BME280;16752;53.364;-1.488;2023-08-31T15:03:13;99558.09;;;24.75;36.10
29879;BME280;16752;53.364;-1.488;2023-08-31T15:05:58;99527.75;;;24.36;37.01
29879;BME280;16752;53.364;-1.488;2023-08-31T15:08:46;99583.75;;;24.38;36.85
29879;BME280;16752;53.364;-1.488;2023-08-31T15:11:30;99526.50;;;24.39;38.03
29879;BME280;16752;53.364;-1.488;2023-08-31T15:14:14;99672.53;;;25.26;37.35
29879;BME280;16752;53.364;-1.488;2023-08-31T15:16:59;99600.94;;;24.82;38.74
29879;BME280;16752;53.364;-1.488;2023-08-31T15:19:43;99630.81;;;24.79;38.85
29879;BME280;16752;53.364;-1.488;2023-08-31T15:22:27;99647.50;;;24.81;39.44
29879;BME280;16752;53.364;-1.488;2023-08-31T15:25:11;99661.97;;;24.73;40.34
29879;BME280;16752;53.364;-1.488;2023-08-31T15:27:54;99590.31;;;24.42;39.83
29879;BME280;16752;53.364;-1.488;2023-08-31T15:30:43;99553.47;;;23.52;42.00
29879;BME280;16752;53.364;-1.488;2023-08-31T15:33:36;99640.38;;;24.28;41.27
29879;BME280;16752;53.364;-1.488;2023-08-31T15:36:20;99677.44;;;24.45;42.34
29879;BME280;16752;53.364;-1.488;2023-08-31T15:39:12;99538.72;;;23.69;42.26
29879;BME280;16752;53.364;-1.488;2023-08-31T15:48:05;99669.63;;;24.30;42.99
29879;BME280;16752;53.364;-1.488;2023-08-31T15:50:50;99608.00;;;23.57;44.20
29879;BME280;16752;53.364;-1.488;2023-08-31T15:53:34;99660.13;;;24.14;44.16
29879;BME280;16752;53.364;-1.488;2023-08-31T15:56:24;99564.56;;;23.55;43.65
29879;BME280;16752;53.364;-1.488;2023-08-31T15:59:32;99691.88;;;24.37;44.31
29879;BME280;16752;53.364;-1.488;2023-08-31T16:02:27;99561.03;;;23.28;45.03
29879;BME280;16752;53.364;-1.488;2023-08-31T16:05:11;99571.81;;;23.61;44.90
29879;BME280;16752;53.364;-1.488;2023-08-31T16:07:55;99628.22;;;23.99;45.38
29879;BME280;16752;53.364;-1.488;2023-08-31T16:10:40;99641.81;;;24.11;44.73
29879;BME280;16752;53.364;-1.488;2023-08-31T16:16:12;99603.09;;;24.00;43.70
29879;BME280;16752;53.364;-1.488;2023-08-31T16:18:56;99627.00;;;23.89;43.20
29879;BME280;16752;53.364;-1.488;2023-08-31T16:24:22;99595.44;;;24.57;42.82
29879;BME280;16752;53.364;-1.488;2023-08-31T16:29:49;99601.44;;;24.46;41.59
29879;BME280;16752;53.364;-1.488;2023-08-31T16:36:14;99539.34;;;23.64;41.31
29879;BME280;16752;53.364;-1.488;2023-08-31T16:38:58;99627.00;;;24.08;42.23
29879;BME280;16752;53.364;-1.488;2023-08-31T16:41:42;99618.56;;;23.92;42.74
29879;BME280;16752;53.364;-1.488;2023-08-31T16:44:26;99662.81;;;24.41;42.85
29879;BME280;16752;53.364;-1.488;2023-08-31T16:47:10;99658.06;;;24.56;42.35
29879;BME280;16752;53.364;-1.488;2023-08-31T16:49:58;99667.69;;;23.84;43.64
29879;BME280;16752;53.364;-1.488;2023-08-31T16:52:42;99688.16;;;24.31;43.59
29879;BME280;16752;53.364;-1.488;2023-08-31T16:55:28;99602.28;;;24.06;42.04
29879;BME280;16752;53.364;-1.488;2023-08-31T16:58:12;99614.38;;;23.56;43.23
29879;BME280;16752;53.364;-1.488;2023-08-31T17:00:56;99618.72;;;23.84;43.69
29879;BME280;16752;53.364;-1.488;2023-08-31T17:03:40;99692.84;;;24.16;42.55
29879;BME280;16752;53.364;-1.488;2023-08-31T17:06:24;99664.84;;;24.25;42.94
29879;BME280;16752;53.364;-1.488;2023-08-31T17:09:09;99596.50;;;23.63;43.05
29879;BME280;16752;53.364;-1.488;2023-08-31T17:11:53;99642.22;;;24.21;42.23
29879;BME280;16752;53.364;-1.488;2023-08-31T17:14:37;99656.63;;;24.20;43.00
29879;BME280;16752;53.364;-1.488;2023-08-31T17:17:21;99587.88;;;23.74;42.61
29879;BME280;16752;53.364;-1.488;2023-08-31T17:20:12;99665.44;;;23.81;42.84
29879;BME280;16752;53.364;-1.488;2023-08-31T17:23:02;99599.34;;;23.55;42.85
29879;BME280;16752;53.364;-1.488;2023-08-31T17:25:46;99683.00;;;24.43;42.17
29879;BME280;16752;53.364;-1.488;2023-08-31T17:28:30;99693.88;;;23.95;41.97
29879;BME280;16752;53.364;-1.488;2023-08-31T17:31:14;99609.88;;;23.76;41.93
29879;BME280;16752;53.364;-1.488;2023-08-31T17:34:03;99605.97;;;23.79;42.65
29879;BME280;16752;53.364;-1.488;2023-08-31T17:36:48;99540.69;;;23.34;42.19
29879;BME280;16752;53.364;-1.488;2023-08-31T17:39:32;99549.94;;;23.38;41.93
29879;BME280;16752;53.364;-1.488;2023-08-31T17:42:18;99689.16;;;24.17;41.64
29879;BME280;16752;53.364;-1.488;2023-08-31T17:45:26;99567.06;;;23.50;40.92
29879;BME280;16752;53.364;-1.488;2023-08-31T17:48:10;99583.09;;;23.50;41.19
29879;BME280;16752;53.364;-1.488;2023-08-31T17:50:54;99629.03;;;23.80;42.05
29879;BME280;16752;53.364;-1.488;2023-08-31T17:57:27;99567.50;;;22.86;42.27
29879;BME280;16752;53.364;-1.488;2023-08-31T18:00:42;99678.16;;;23.18;43.21
29879;BME280;16752;53.364;-1.488;2023-08-31T18:03:27;99577.16;;;22.94;42.55